sensor_id;sensor_type;location;lat;lon;timestamp;P1;durP1;ratioP1;P2;durP2;ratioP2
23474;SDS011;11910;52.086;21.066;2023-08-07T00:00:09;2.88;;;0.50;;
23474;SDS011;11910;52.086;21.066;2023-08-07T00:02:35;1.25;;;0.50;;
23474;SDS011;11910;52.086;21.066;2023-08-07T00:05:01;1.85;;;0.40;;
23474;SDS011;11910;52.086;21.066;2023-08-07T00:07:26;0.70;;;0.32;;
23474;SDS011;11910;52.086;21.066;2023-08-07T00:09:52;0.47;;;0.32;;
23474;SDS011;11910;52.086;21.066;2023-08-07T00:12:17;0.38;;;0.30;;
23474;SDS011;11910;52.086;21.066;2023-08-07T00:14:43;0.98;;;0.30;;
23474;SDS011;11910;52.086;21.066;2023-08-07T00:17:08;1.20;;;0.30;;
23474;SDS011;11910;52.086;21.066;2023-08-07T00:19:34;2.45;;;0.50;;
23474;SDS011;11910;52.086;21.066;2023-08-07T00:22:00;0.90;;;0.40;;
23474;SDS011;11910;52.086;21.066;2023-08-07T00:24:25;2.10;;;0.40;;
23474;SDS011;11910;52.086;21.066;2023-08-07T00:26:51;0.47;;;0.25;;
23474;SDS011;11910;52.086;21.066;2023-08-07T00:29:16;0.77;;;0.25;;
23474;SDS011;11910;52.086;21.066;2023-08-07T00:31:42;0.43;;;0.17;;
23474;SDS011;11910;52.086;21.066;2023-08-07T00:34:07;1.65;;;0.20;;
23474;SDS011;11910;52.086;21.066;2023-08-07T00:36:34;0.35;;;0.30;;
23474;SDS011;11910;52.086;21.066;2023-08-07T00:39:00;0.77;;;0.40;;
23474;SDS011;11910;52.086;21.066;2023-08-07T00:41:28;1.35;;;0.47;;
23474;SDS011;11910;52.086;21.066;2023-08-07T00:43:54;0.85;;;0.47;;
23474;SDS011;11910;52.086;21.066;2023-08-07T00:46:20;0.50;;;0.40;;
23474;SDS011;11910;52.086;21.066;2023-08-07T00:48:46;1.23;;;0.60;;
23474;SDS011;11910;52.086;21.066;2023-08-07T00:51:12;0.73;;;0.50;;
23474;SDS011;11910;52.086;21.066;2023-08-07T00:53:38;2.30;;;0.80;;
23474;SDS011;11910;52.086;21.066;2023-08-07T00:56:04;1.17;;;0.60;;
23474;SDS011;11910;52.086;21.066;2023-08-07T00:58:31;1.77;;;0.88;;
23474;SDS011;11910;52.086;21.066;2023-08-07T01:00:57;2.20;;;0.60;;
23474;SDS011;11910;52.086;21.066;2023-08-07T01:03:24;1.13;;;0.70;;
23474;SDS011;11910;52.086;21.066;2023-08-07T01:05:49;1.95;;;0.80;;
23474;SDS011;11910;52.086;21.066;2023-08-07T01:08:15;1.92;;;1.00;;
23474;SDS011;11910;52.086;21.066;2023-08-07T01:19:34;0.95;;;0.90;;
23474;SDS011;11910;52.086;21.066;2023-08-07T01:24:35;1.17;;;1.10;;
23474;SDS011;11910;52.086;21.066;2023-08-07T01:27:11;1.73;;;1.00;;
23474;SDS011;11910;52.086;21.066;2023-08-07T01:32:18;1.17;;;1.05;;
23474;SDS011;11910;52.086;21.066;2023-08-07T01:34:52;2.63;;;1.38;;
23474;SDS011;11910;52.086;21.066;2023-08-07T01:37:21;1.25;;;1.17;;
23474;SDS011;11910;52.086;21.066;2023-08-07T01:39:48;1.65;;;1.30;;
23474;SDS011;11910;52.086;21.066;2023-08-07T01:42:15;1.50;;;1.40;;
23474;SDS011;11910;52.086;21.066;2023-08-07T01:44:41;1.80;;;1.30;;
23474;SDS011;11910;52.086;21.066;2023-08-07T01:47:07;1.88;;;1.40;;
23474;SDS011;11910;52.086;21.066;2023-08-07T01:49:32;2.28;;;1.80;;
23474;SDS011;11910;52.086;21.066;2023-08-07T01:51:58;1.95;;;1.75;;
23474;SDS011;11910;52.086;21.066;2023-08-07T01:54:23;2.22;;;1.70;;
23474;SDS011;11910;52.086;21.066;2023-08-07T01:56:49;1.92;;;1.83;;
23474;SDS011;11910;52.086;21.066;2023-08-07T01:59:14;1.80;;;1.70;;
23474;SDS011;11910;52.086;21.066;2023-08-07T02:01:40;2.28;;;1.60;;
23474;SDS011;11910;52.086;21.066;2023-08-07T02:04:05;1.60;;;1.50;;
23474;SDS011;11910;52.086;21.066;2023-08-07T02:06:32;3.33;;;1.65;;
23474;SDS011;11910;52.086;21.066;2023-08-07T02:08:57;2.67;;;1.73;;
23474;SDS011;11910;52.086;21.066;2023-08-07T02:11:23;2.13;;;1.52;;
23474;SDS011;11910;52.086;21.066;2023-08-07T02:13:48;1.48;;;1.30;;
23474;SDS011;11910;52.086;21.066;2023-08-07T02:16:14;3.97;;;1.50;;
23474;SDS011;11910;52.086;21.066;2023-08-07T02:18:39;2.58;;;1.20;;
23474;SDS011;11910;52.086;21.066;2023-08-07T02:21:05;2.17;;;1.15;;
23474;SDS011;11910;52.086;21.066;2023-08-07T02:23:31;1.85;;;1.25;;
23474;SDS011;11910;52.086;21.066;2023-08-07T02:25:56;2.65;;;1.55;;
23474;SDS011;11910;52.086;21.066;2023-08-07T02:28:22;1.60;;;1.15;;
23474;SDS011;11910;52.086;21.066;2023-08-07T02:30:47;1.67;;;1.27;;
23474;SDS011;11910;52.086;21.066;2023-08-07T02:33:16;1.52;;;1.40;;
23474;SDS011;11910;52.086;21.066;2023-08-07T02:35:41;2.63;;;1.30;;
23474;SDS011;11910;52.086;21.066;2023-08-07T02:38:07;2.47;;;1.15;;
23474;SDS011;11910;52.086;21.066;2023-08-07T02:40:32;2.17;;;1.30;;
23474;SDS011;11910;52.086;21.066;2023-08-07T02:42:58;1.73;;;1.20;;
23474;SDS011;11910;52.086;21.066;2023-08-07T02:45:24;2.78;;;1.30;;
23474;SDS011;11910;52.086;21.066;2023-08-07T02:47:49;1.80;;;1.40;;
23474;SDS011;11910;52.086;21.066;2023-08-07T02:50:15;2.53;;;1.45;;
23474;SDS011;11910;52.086;21.066;2023-08-07T02:52:40;2.67;;;1.40;;
23474;SDS011;11910;52.086;21.066;2023-08-07T02:55:06;2.03;;;1.40;;
23474;SDS011;11910;52.086;21.066;2023-08-07T02:57:32;2.35;;;1.30;;
23474;SDS011;11910;52.086;21.066;2023-08-07T02:59:58;1.60;;;1.50;;
23474;SDS011;11910;52.086;21.066;2023-08-07T03:02:23;5.82;;;1.67;;
23474;SDS011;11910;52.086;21.066;2023-08-07T03:04:49;3.65;;;1.60;;
23474;SDS011;11910;52.086;21.066;2023-08-07T03:07:15;2.47;;;1.52;;
23474;SDS011;11910;52.086;21.066;2023-08-07T03:09:40;2.13;;;1.40;;
23474;SDS011;11910;52.086;21.066;2023-08-07T03:12:06;2.45;;;1.85;;
23474;SDS011;11910;52.086;21.066;2023-08-07T03:14:31;4.05;;;1.83;;
23474;SDS011;11910;52.086;21.066;2023-08-07T03:16:57;2.97;;;1.70;;
23474;SDS011;11910;52.086;21.066;2023-08-07T03:19:23;4.82;;;1.65;;
23474;SDS011;11910;52.086;21.066;2023-08-07T03:21:49;2.22;;;1.50;;
23474;SDS011;11910;52.086;21.066;2023-08-07T03:24:14;3.30;;;1.60;;
23474;SDS011;11910;52.086;21.066;2023-08-07T03:26:40;3.47;;;1.55;;
23474;SDS011;11910;52.086;21.066;2023-08-07T03:29:06;1.77;;;1.67;;
23474;SDS011;11910;52.086;21.066;2023-08-07T03:31:31;1.95;;;1.80;;
23474;SDS011;11910;52.086;21.066;2023-08-07T03:33:57;2.60;;;2.20;;
23474;SDS011;11910;52.086;21.066;2023-08-07T03:36:23;2.70;;;1.90;;
23474;SDS011;11910;52.086;21.066;2023-08-07T03:38:49;4.63;;;1.40;;
23474;SDS011;11910;52.086;21.066;2023-08-07T03:41:14;5.00;;;1.88;;
23474;SDS011;11910;52.086;21.066;2023-08-07T03:43:40;2.42;;;1.90;;
23474;SDS011;11910;52.086;21.066;2023-08-07T03:46:05;3.72;;;1.52;;
23474;SDS011;11910;52.086;21.066;2023-08-07T03:48:31;3.20;;;1.60;;
23474;SDS011;11910;52.086;21.066;2023-08-07T03:51:06;2.50;;;1.83;;
23474;SDS011;11910;52.086;21.066;2023-08-07T03:53:37;3.25;;;1.70;;
23474;SDS011;11910;52.086;21.066;2023-08-07T03:56:03;1.75;;;1.60;;
23474;SDS011;11910;52.086;21.066;2023-08-07T03:58:29;1.98;;;1.55;;
23474;SDS011;11910;52.086;21.066;2023-08-07T04:00:55;2.05;;;1.52;;
23474;SDS011;11910;52.086;21.066;2023-08-07T04:03:20;1.58;;;1.40;;
23474;SDS011;11910;52.086;21.066;2023-08-07T04:05:46;1.83;;;1.40;;
23474;SDS011;11910;52.086;21.066;2023-08-07T04:08:12;2.38;;;1.40;;
23474;SDS011;11910;52.086;21.066;2023-08-07T04:10:37;1.90;;;1.45;;
23474;SDS011;11910;52.086;21.066;2023-08-07T04:13:03;2.15;;;1.40;;
23474;SDS011;11910;52.086;21.066;2023-08-07T04:15:29;1.75;;;1.38;;
23474;SDS011;11910;52.086;21.066;2023-08-07T04:17:54;3.13;;;1.40;;
23474;SDS011;11910;52.086;21.066;2023-08-07T04:20:20;1.58;;;1.20;;
23474;SDS011;11910;52.086;21.066;2023-08-07T04:22:46;1.40;;;1.30;;
23474;SDS011;11910;52.086;21.066;2023-08-07T04:25:11;3.75;;;1.17;;
23474;SDS011;11910;52.086;21.066;2023-08-07T04:27:37;1.75;;;1.30;;
23474;SDS011;11910;52.086;21.066;2023-08-07T04:30:04;1.77;;;1.10;;
23474;SDS011;11910;52.086;21.066;2023-08-07T04:32:30;2.30;;;1.40;;
23474;SDS011;11910;52.086;21.066;2023-08-07T04:34:56;2.25;;;1.13;;
23474;SDS011;11910;52.086;21.066;2023-08-07T04:37:21;1.30;;;0.98;;
23474;SDS011;11910;52.086;21.066;2023-08-07T04:39:47;2.65;;;1.10;;
23474;SDS011;11910;52.086;21.066;2023-08-07T04:42:13;1.23;;;1.00;;
23474;SDS011;11910;52.086;21.066;2023-08-07T04:44:38;2.58;;;1.20;;
23474;SDS011;11910;52.086;21.066;2023-08-07T04:47:04;1.95;;;1.05;;
23474;SDS011;11910;52.086;21.066;2023-08-07T04:49:30;3.60;;;0.93;;
23474;SDS011;11910;52.086;21.066;2023-08-07T04:51:56;1.45;;;1.02;;
23474;SDS011;11910;52.086;21.066;2023-08-07T04:54:22;1.20;;;1.10;;
23474;SDS011;11910;52.086;21.066;2023-08-07T04:56:47;1.88;;;1.10;;
23474;SDS011;11910;52.086;21.066;2023-08-07T04:59:13;2.45;;;1.20;;
23474;SDS011;11910;52.086;21.066;2023-08-07T05:01:38;3.17;;;1.23;;
23474;SDS011;11910;52.086;21.066;2023-08-07T05:04:04;1.73;;;1.30;;
23474;SDS011;11910;52.086;21.066;2023-08-07T05:06:30;3.03;;;1.40;;
23474;SDS011;11910;52.086;21.066;2023-08-07T05:08:56;2.05;;;1.52;;
23474;SDS011;11910;52.086;21.066;2023-08-07T05:11:22;1.52;;;1.40;;
23474;SDS011;11910;52.086;21.066;2023-08-07T05:13:47;2.15;;;1.50;;
23474;SDS011;11910;52.086;21.066;2023-08-07T05:16:13;3.00;;;1.60;;
23474;SDS011;11910;52.086;21.066;2023-08-07T05:18:39;3.30;;;1.58;;
23474;SDS011;11910;52.086;21.066;2023-08-07T05:21:04;4.00;;;1.50;;
23474;SDS011;11910;52.086;21.066;2023-08-07T05:23:32;2.40;;;1.65;;
23474;SDS011;11910;52.086;21.066;2023-08-07T05:25:57;3.13;;;1.30;;
23474;SDS011;11910;52.086;21.066;2023-08-07T05:28:23;3.28;;;1.42;;
23474;SDS011;11910;52.086;21.066;2023-08-07T05:30:48;1.75;;;1.50;;
23474;SDS011;11910;52.086;21.066;2023-08-07T05:33:14;3.13;;;1.50;;
23474;SDS011;11910;52.086;21.066;2023-08-07T05:35:40;4.20;;;1.55;;
23474;SDS011;11910;52.086;21.066;2023-08-07T05:38:06;2.72;;;1.73;;
23474;SDS011;11910;52.086;21.066;2023-08-07T05:40:31;3.13;;;1.50;;
23474;SDS011;11910;52.086;21.066;2023-08-07T05:42:59;2.63;;;1.92;;
23474;SDS011;11910;52.086;21.066;2023-08-07T05:45:24;3.85;;;1.70;;
23474;SDS011;11910;52.086;21.066;2023-08-07T05:47:50;2.38;;;1.77;;
23474;SDS011;11910;52.086;21.066;2023-08-07T05:50:15;2.20;;;1.98;;
23474;SDS011;11910;52.086;21.066;2023-08-07T05:52:41;3.28;;;2.10;;
23474;SDS011;11910;52.086;21.066;2023-08-07T05:55:07;5.55;;;2.00;;
23474;SDS011;11910;52.086;21.066;2023-08-07T05:57:33;2.55;;;2.00;;
23474;SDS011;11910;52.086;21.066;2023-08-07T05:59:59;2.22;;;1.60;;
23474;SDS011;11910;52.086;21.066;2023-08-07T06:02:24;2.83;;;1.80;;
23474;SDS011;11910;52.086;21.066;2023-08-07T06:04:50;5.32;;;1.80;;
23474;SDS011;11910;52.086;21.066;2023-08-07T06:07:16;3.00;;;1.80;;
23474;SDS011;11910;52.086;21.066;2023-08-07T06:09:41;4.53;;;1.80;;
23474;SDS011;11910;52.086;21.066;2023-08-07T06:12:07;2.60;;;1.50;;
23474;SDS011;11910;52.086;21.066;2023-08-07T06:14:33;3.97;;;1.52;;
23474;SDS011;11910;52.086;21.066;2023-08-07T06:16:59;3.25;;;1.80;;
23474;SDS011;11910;52.086;21.066;2023-08-07T06:19:26;1.95;;;1.50;;
23474;SDS011;11910;52.086;21.066;2023-08-07T06:21:55;2.97;;;1.70;;
23474;SDS011;11910;52.086;21.066;2023-08-07T06:24:21;2.60;;;1.40;;
23474;SDS011;11910;52.086;21.066;2023-08-07T06:26:50;4.65;;;1.50;;
23474;SDS011;11910;52.086;21.066;2023-08-07T06:29:16;1.80;;;1.40;;
23474;SDS011;11910;52.086;21.066;2023-08-07T06:31:41;2.03;;;1.58;;
23474;SDS011;11910;52.086;21.066;2023-08-07T06:34:08;1.48;;;1.38;;
23474;SDS011;11910;52.086;21.066;2023-08-07T06:36:34;1.40;;;1.20;;
23474;SDS011;11910;52.086;21.066;2023-08-07T06:38:59;4.05;;;1.23;;
23474;SDS011;11910;52.086;21.066;2023-08-07T06:41:25;2.97;;;1.38;;
23474;SDS011;11910;52.086;21.066;2023-08-07T06:43:51;3.50;;;1.30;;
23474;SDS011;11910;52.086;21.066;2023-08-07T06:46:16;2.38;;;1.35;;
23474;SDS011;11910;52.086;21.066;2023-08-07T06:48:43;1.98;;;1.30;;
23474;SDS011;11910;52.086;21.066;2023-08-07T06:51:08;2.05;;;1.40;;
23474;SDS011;11910;52.086;21.066;2023-08-07T06:53:34;4.03;;;1.30;;
23474;SDS011;11910;52.086;21.066;2023-08-07T06:56:00;4.13;;;1.50;;
23474;SDS011;11910;52.086;21.066;2023-08-07T06:58:26;6.47;;;1.30;;
23474;SDS011;11910;52.086;21.066;2023-08-07T07:00:51;1.80;;;1.27;;
23474;SDS011;11910;52.086;21.066;2023-08-07T07:03:17;1.58;;;1.38;;
23474;SDS011;11910;52.086;21.066;2023-08-07T07:05:42;2.03;;;1.30;;
23474;SDS011;11910;52.086;21.066;2023-08-07T07:08:08;2.97;;;1.33;;
23474;SDS011;11910;52.086;21.066;2023-08-07T07:10:34;2.58;;;1.30;;
23474;SDS011;11910;52.086;21.066;2023-08-07T07:12:59;3.45;;;1.30;;
23474;SDS011;11910;52.086;21.066;2023-08-07T07:15:25;2.75;;;1.60;;
23474;SDS011;11910;52.086;21.066;2023-08-07T07:17:51;4.30;;;1.30;;
23474;SDS011;11910;52.086;21.066;2023-08-07T07:20:16;3.65;;;1.40;;
23474;SDS011;11910;52.086;21.066;2023-08-07T07:22:42;2.50;;;1.30;;
23474;SDS011;11910;52.086;21.066;2023-08-07T07:25:08;1.77;;;1.25;;
23474;SDS011;11910;52.086;21.066;2023-08-07T07:27:34;2.42;;;1.20;;
23474;SDS011;11910;52.086;21.066;2023-08-07T07:30:00;4.47;;;1.50;;
23474;SDS011;11910;52.086;21.066;2023-08-07T07:32:25;3.78;;;1.60;;
23474;SDS011;11910;52.086;21.066;2023-08-07T07:34:51;4.95;;;1.45;;
23474;SDS011;11910;52.086;21.066;2023-08-07T07:37:17;3.92;;;1.60;;
23474;SDS011;11910;52.086;21.066;2023-08-07T07:39:42;2.33;;;1.50;;
23474;SDS011;11910;52.086;21.066;2023-08-07T07:42:08;4.55;;;1.60;;
23474;SDS011;11910;52.086;21.066;2023-08-07T07:44:36;4.20;;;1.48;;
23474;SDS011;11910;52.086;21.066;2023-08-07T07:47:03;5.60;;;1.65;;
23474;SDS011;11910;52.086;21.066;2023-08-07T07:49:35;3.47;;;1.40;;
23474;SDS011;11910;52.086;21.066;2023-08-07T07:52:00;1.65;;;1.40;;
23474;SDS011;11910;52.086;21.066;2023-08-07T07:54:27;6.13;;;1.40;;
23474;SDS011;11910;52.086;21.066;2023-08-07T07:56:53;6.75;;;1.55;;
23474;SDS011;11910;52.086;21.066;2023-08-07T07:59:19;5.93;;;1.65;;
23474;SDS011;11910;52.086;21.066;2023-08-07T08:01:44;5.05;;;1.50;;
23474;SDS011;11910;52.086;21.066;2023-08-07T08:04:10;3.55;;;1.70;;
23474;SDS011;11910;52.086;21.066;2023-08-07T08:06:36;3.00;;;1.60;;
23474;SDS011;11910;52.086;21.066;2023-08-07T08:09:01;2.22;;;1.33;;
23474;SDS011;11910;52.086;21.066;2023-08-07T08:11:29;1.73;;;1.30;;
23474;SDS011;11910;52.086;21.066;2023-08-07T08:14:01;2.75;;;1.35;;
23474;SDS011;11910;52.086;21.066;2023-08-07T08:16:27;2.17;;;1.65;;
23474;SDS011;11910;52.086;21.066;2023-08-07T08:18:53;3.20;;;1.50;;
23474;SDS011;11910;52.086;21.066;2023-08-07T08:21:18;3.53;;;1.38;;
23474;SDS011;11910;52.086;21.066;2023-08-07T08:23:44;2.72;;;1.40;;
23474;SDS011;11910;52.086;21.066;2023-08-07T08:26:09;4.38;;;1.48;;
23474;SDS011;11910;52.086;21.066;2023-08-07T08:28:35;4.63;;;1.50;;
23474;SDS011;11910;52.086;21.066;2023-08-07T08:31:01;1.48;;;1.15;;
23474;SDS011;11910;52.086;21.066;2023-08-07T08:33:26;3.22;;;1.30;;
23474;SDS011;11910;52.086;21.066;2023-08-07T08:35:52;4.38;;;1.50;;
23474;SDS011;11910;52.086;21.066;2023-08-07T08:38:18;1.98;;;1.30;;
23474;SDS011;11910;52.086;21.066;2023-08-07T08:40:44;1.85;;;1.20;;
23474;SDS011;11910;52.086;21.066;2023-08-07T08:43:11;1.20;;;1.10;;
23474;SDS011;11910;52.086;21.066;2023-08-07T08:45:38;1.83;;;1.23;;
23474;SDS011;11910;52.086;21.066;2023-08-07T08:48:07;2.25;;;1.23;;
23474;SDS011;11910;52.086;21.066;2023-08-07T08:50:35;5.07;;;1.42;;
23474;SDS011;11910;52.086;21.066;2023-08-07T08:53:03;7.00;;;1.20;;
23474;SDS011;11910;52.086;21.066;2023-08-07T08:55:29;7.55;;;1.40;;
23474;SDS011;11910;52.086;21.066;2023-08-07T08:57:55;6.30;;;1.17;;
23474;SDS011;11910;52.086;21.066;2023-08-07T09:00:25;3.72;;;1.00;;
23474;SDS011;11910;52.086;21.066;2023-08-07T09:02:54;5.10;;;1.23;;
23474;SDS011;11910;52.086;21.066;2023-08-07T09:05:20;5.65;;;1.42;;
23474;SDS011;11910;52.086;21.066;2023-08-07T09:07:47;2.78;;;1.08;;
23474;SDS011;11910;52.086;21.066;2023-08-07T09:10:14;3.63;;;1.23;;
23474;SDS011;11910;52.086;21.066;2023-08-07T09:12:42;1.70;;;1.00;;
23474;SDS011;11910;52.086;21.066;2023-08-07T09:15:14;3.42;;;1.20;;
23474;SDS011;11910;52.086;21.066;2023-08-07T09:17:41;1.23;;;1.08;;
23474;SDS011;11910;52.086;21.066;2023-08-07T09:20:09;3.67;;;1.38;;
23474;SDS011;11910;52.086;21.066;2023-08-07T09:25:06;4.70;;;1.20;;
23474;SDS011;11910;52.086;21.066;2023-08-07T09:27:34;1.88;;;1.10;;
23474;SDS011;11910;52.086;21.066;2023-08-07T09:30:04;4.70;;;1.10;;
23474;SDS011;11910;52.086;21.066;2023-08-07T09:32:33;1.95;;;1.15;;
23474;SDS011;11910;52.086;21.066;2023-08-07T09:34:59;3.05;;;1.13;;
23474;SDS011;11910;52.086;21.066;2023-08-07T09:37:28;4.25;;;1.40;;
23474;SDS011;11910;52.086;21.066;2023-08-07T09:39:54;5.70;;;1.70;;
23474;SDS011;11910;52.086;21.066;2023-08-07T09:42:20;3.83;;;1.13;;
23474;SDS011;11910;52.086;21.066;2023-08-07T09:44:46;6.75;;;1.40;;
23474;SDS011;11910;52.086;21.066;2023-08-07T09:47:17;5.85;;;1.10;;
23474;SDS011;11910;52.086;21.066;2023-08-07T09:49:44;5.30;;;1.48;;
23474;SDS011;11910;52.086;21.066;2023-08-07T09:52:16;2.30;;;1.30;;
23474;SDS011;11910;52.086;21.066;2023-08-07T09:54:45;7.25;;;2.17;;
23474;SDS011;11910;52.086;21.066;2023-08-07T09:57:13;5.45;;;1.10;;
23474;SDS011;11910;52.086;21.066;2023-08-07T09:59:39;1.77;;;1.17;;
23474;SDS011;11910;52.086;21.066;2023-08-07T10:02:07;3.58;;;1.30;;
23474;SDS011;11910;52.086;21.066;2023-08-07T10:04:34;2.10;;;1.40;;
23474;SDS011;11910;52.086;21.066;2023-08-07T10:07:01;5.75;;;1.30;;
23474;SDS011;11910;52.086;21.066;2023-08-07T10:09:27;1.90;;;1.30;;
23474;SDS011;11910;52.086;21.066;2023-08-07T10:11:53;4.05;;;1.35;;
23474;SDS011;11910;52.086;21.066;2023-08-07T10:14:19;4.35;;;1.48;;
23474;SDS011;11910;52.086;21.066;2023-08-07T10:16:46;1.35;;;1.25;;
23474;SDS011;11910;52.086;21.066;2023-08-07T10:19:14;2.83;;;1.27;;
23474;SDS011;11910;52.086;21.066;2023-08-07T10:21:40;3.40;;;1.67;;
23474;SDS011;11910;52.086;21.066;2023-08-07T10:24:09;3.00;;;1.40;;
23474;SDS011;11910;52.086;21.066;2023-08-07T10:26:37;2.40;;;1.30;;
23474;SDS011;11910;52.086;21.066;2023-08-07T10:29:06;2.07;;;1.20;;
23474;SDS011;11910;52.086;21.066;2023-08-07T10:31:35;4.07;;;1.30;;
23474;SDS011;11910;52.086;21.066;2023-08-07T10:34:01;4.45;;;1.27;;
23474;SDS011;11910;52.086;21.066;2023-08-07T10:36:33;1.95;;;1.40;;
23474;SDS011;11910;52.086;21.066;2023-08-07T10:39:10;2.35;;;1.30;;
23474;SDS011;11910;52.086;21.066;2023-08-07T10:41:40;3.50;;;1.50;;
23474;SDS011;11910;52.086;21.066;2023-08-07T10:44:23;7.68;;;1.67;;
23474;SDS011;11910;52.086;21.066;2023-08-07T10:46:52;9.63;;;1.90;;
23474;SDS011;11910;52.086;21.066;2023-08-07T10:49:31;11.65;;;1.77;;
23474;SDS011;11910;52.086;21.066;2023-08-07T10:54:36;4.55;;;1.40;;
23474;SDS011;11910;52.086;21.066;2023-08-07T10:57:09;9.52;;;1.50;;
23474;SDS011;11910;52.086;21.066;2023-08-07T10:59:37;5.75;;;1.60;;
23474;SDS011;11910;52.086;21.066;2023-08-07T11:02:03;5.80;;;1.58;;
23474;SDS011;11910;52.086;21.066;2023-08-07T11:04:36;11.10;;;1.70;;
23474;SDS011;11910;52.086;21.066;2023-08-07T11:07:02;7.65;;;1.50;;
23474;SDS011;11910;52.086;21.066;2023-08-07T11:09:28;7.78;;;1.73;;
23474;SDS011;11910;52.086;21.066;2023-08-07T11:11:54;7.00;;;1.30;;
23474;SDS011;11910;52.086;21.066;2023-08-07T11:14:20;4.40;;;1.40;;
23474;SDS011;11910;52.086;21.066;2023-08-07T11:16:46;2.67;;;1.10;;
23474;SDS011;11910;52.086;21.066;2023-08-07T11:19:13;4.00;;;1.30;;
23474;SDS011;11910;52.086;21.066;2023-08-07T11:21:40;3.60;;;1.30;;
23474;SDS011;11910;52.086;21.066;2023-08-07T11:24:07;2.40;;;1.20;;
23474;SDS011;11910;52.086;21.066;2023-08-07T11:26:33;2.65;;;1.35;;
23474;SDS011;11910;52.086;21.066;2023-08-07T11:28:59;1.30;;;1.20;;
23474;SDS011;11910;52.086;21.066;2023-08-07T11:31:24;2.35;;;1.20;;
23474;SDS011;11910;52.086;21.066;2023-08-07T11:33:57;4.82;;;1.15;;
23474;SDS011;11910;52.086;21.066;2023-08-07T11:36:28;3.00;;;1.40;;
23474;SDS011;11910;52.086;21.066;2023-08-07T11:38:54;3.28;;;1.40;;
23474;SDS011;11910;52.086;21.066;2023-08-07T11:41:20;4.40;;;1.30;;
23474;SDS011;11910;52.086;21.066;2023-08-07T11:43:45;3.95;;;1.40;;
23474;SDS011;11910;52.086;21.066;2023-08-07T11:46:12;3.72;;;1.67;;
23474;SDS011;11910;52.086;21.066;2023-08-07T11:48:39;3.60;;;1.50;;
23474;SDS011;11910;52.086;21.066;2023-08-07T11:51:06;5.57;;;1.52;;
23474;SDS011;11910;52.086;21.066;2023-08-07T11:53:33;3.55;;;1.33;;
23474;SDS011;11910;52.086;21.066;2023-08-07T11:56:03;3.58;;;1.60;;
23474;SDS011;11910;52.086;21.066;2023-08-07T11:58:35;3.67;;;1.70;;
23474;SDS011;11910;52.086;21.066;2023-08-07T12:01:09;6.50;;;1.70;;
23474;SDS011;11910;52.086;21.066;2023-08-07T12:06:18;7.88;;;1.60;;
23474;SDS011;11910;52.086;21.066;2023-08-07T12:08:44;10.07;;;1.90;;
23474;SDS011;11910;52.086;21.066;2023-08-07T12:11:13;3.33;;;1.48;;
23474;SDS011;11910;52.086;21.066;2023-08-07T12:13:39;3.42;;;1.52;;
23474;SDS011;11910;52.086;21.066;2023-08-07T12:16:06;3.15;;;1.70;;
23474;SDS011;11910;52.086;21.066;2023-08-07T12:18:33;5.10;;;1.67;;
23474;SDS011;11910;52.086;21.066;2023-08-07T12:21:02;2.47;;;1.50;;
23474;SDS011;11910;52.086;21.066;2023-08-07T12:23:30;7.78;;;1.70;;
23474;SDS011;11910;52.086;21.066;2023-08-07T12:25:58;3.60;;;1.70;;
23474;SDS011;11910;52.086;21.066;2023-08-07T12:28:24;6.25;;;2.08;;
23474;SDS011;11910;52.086;21.066;2023-08-07T12:30:51;2.85;;;1.75;;
23474;SDS011;11910;52.086;21.066;2023-08-07T12:33:17;2.65;;;1.70;;
23474;SDS011;11910;52.086;21.066;2023-08-07T12:35:43;2.50;;;1.60;;
23474;SDS011;11910;52.086;21.066;2023-08-07T12:38:09;3.60;;;1.67;;
23474;SDS011;11910;52.086;21.066;2023-08-07T12:40:36;4.85;;;1.52;;
23474;SDS011;11910;52.086;21.066;2023-08-07T12:43:05;3.97;;;1.70;;
23474;SDS011;11910;52.086;21.066;2023-08-07T12:45:31;3.85;;;1.80;;
23474;SDS011;11910;52.086;21.066;2023-08-07T12:47:57;4.07;;;1.48;;
23474;SDS011;11910;52.086;21.066;2023-08-07T12:50:23;5.28;;;1.83;;
23474;SDS011;11910;52.086;21.066;2023-08-07T12:52:50;2.90;;;1.67;;
23474;SDS011;11910;52.086;21.066;2023-08-07T12:55:16;7.75;;;1.63;;
23474;SDS011;11910;52.086;21.066;2023-08-07T12:57:41;3.13;;;1.42;;
23474;SDS011;11910;52.086;21.066;2023-08-07T13:00:08;2.05;;;1.33;;
23474;SDS011;11910;52.086;21.066;2023-08-07T13:05:09;4.00;;;1.58;;
23474;SDS011;11910;52.086;21.066;2023-08-07T13:07:35;4.05;;;1.40;;
23474;SDS011;11910;52.086;21.066;2023-08-07T13:10:03;4.30;;;1.52;;
23474;SDS011;11910;52.086;21.066;2023-08-07T13:12:30;2.65;;;1.40;;
23474;SDS011;11910;52.086;21.066;2023-08-07T13:14:59;3.03;;;1.50;;
23474;SDS011;11910;52.086;21.066;2023-08-07T13:17:25;1.60;;;1.30;;
23474;SDS011;11910;52.086;21.066;2023-08-07T13:19:50;4.45;;;1.63;;
23474;SDS011;11910;52.086;21.066;2023-08-07T13:22:16;5.18;;;1.55;;
23474;SDS011;11910;52.086;21.066;2023-08-07T13:24:42;2.35;;;1.42;;
23474;SDS011;11910;52.086;21.066;2023-08-07T13:27:08;4.30;;;1.35;;
23474;SDS011;11910;52.086;21.066;2023-08-07T13:29:33;1.75;;;1.40;;
23474;SDS011;11910;52.086;21.066;2023-08-07T13:31:59;3.80;;;1.40;;
23474;SDS011;11910;52.086;21.066;2023-08-07T13:34:25;2.85;;;1.30;;
23474;SDS011;11910;52.086;21.066;2023-08-07T13:36:51;3.13;;;1.50;;
23474;SDS011;11910;52.086;21.066;2023-08-07T13:39:16;2.97;;;1.58;;
23474;SDS011;11910;52.086;21.066;2023-08-07T13:41:42;5.00;;;1.75;;
23474;SDS011;11910;52.086;21.066;2023-08-07T13:44:08;2.50;;;1.70;;
23474;SDS011;11910;52.086;21.066;2023-08-07T13:46:35;1.70;;;1.50;;
23474;SDS011;11910;52.086;21.066;2023-08-07T13:49:00;5.38;;;1.70;;
23474;SDS011;11910;52.086;21.066;2023-08-07T13:51:26;4.40;;;1.50;;
23474;SDS011;11910;52.086;21.066;2023-08-07T13:53:52;9.18;;;1.70;;
23474;SDS011;11910;52.086;21.066;2023-08-07T13:56:18;4.40;;;1.88;;
23474;SDS011;11910;52.086;21.066;2023-08-07T13:58:44;3.58;;;1.50;;
23474;SDS011;11910;52.086;21.066;2023-08-07T14:01:09;3.33;;;1.73;;
23474;SDS011;11910;52.086;21.066;2023-08-07T14:03:35;2.83;;;1.90;;
23474;SDS011;11910;52.086;21.066;2023-08-07T14:06:01;2.13;;;1.80;;
23474;SDS011;11910;52.086;21.066;2023-08-07T14:08:26;5.03;;;1.92;;
23474;SDS011;11910;52.086;21.066;2023-08-07T14:10:52;2.35;;;1.77;;
23474;SDS011;11910;52.086;21.066;2023-08-07T14:13:18;4.80;;;2.00;;
23474;SDS011;11910;52.086;21.066;2023-08-07T14:15:43;5.00;;;1.85;;
23474;SDS011;11910;52.086;21.066;2023-08-07T14:18:09;6.32;;;1.92;;
23474;SDS011;11910;52.086;21.066;2023-08-07T14:20:36;6.68;;;1.85;;
23474;SDS011;11910;52.086;21.066;2023-08-07T14:23:02;6.22;;;2.35;;
23474;SDS011;11910;52.086;21.066;2023-08-07T14:25:28;5.32;;;1.98;;
23474;SDS011;11910;52.086;21.066;2023-08-07T14:27:53;5.50;;;1.73;;
23474;SDS011;11910;52.086;21.066;2023-08-07T14:30:19;2.90;;;1.60;;
23474;SDS011;11910;52.086;21.066;2023-08-07T14:32:45;4.10;;;1.90;;
23474;SDS011;11910;52.086;21.066;2023-08-07T14:35:12;9.98;;;2.20;;
23474;SDS011;11910;52.086;21.066;2023-08-07T14:37:39;11.88;;;2.25;;
23474;SDS011;11910;52.086;21.066;2023-08-07T14:40:05;8.88;;;2.28;;
23474;SDS011;11910;52.086;21.066;2023-08-07T14:42:31;7.43;;;2.20;;
23474;SDS011;11910;52.086;21.066;2023-08-07T14:44:57;7.25;;;2.10;;
23474;SDS011;11910;52.086;21.066;2023-08-07T14:47:23;6.60;;;1.75;;
23474;SDS011;11910;52.086;21.066;2023-08-07T14:49:49;6.97;;;1.95;;
23474;SDS011;11910;52.086;21.066;2023-08-07T14:52:15;6.32;;;1.88;;